EBLG/LGG METAR and TAF weather

Enter ICAO airport designator
Station Type Date Time Source
EBLG METAR 2019/06/17 12:20 UTC NOAA

EBLG 171220Z VRB04KT CAVOK 24/11 Q1019 NOSIG


Station Type Date Time Source
EBLG Decoded METAR 2019/06/17 12:20 UTC NOAA

Bierset, Belgium (EBLG) 50-39N 005-27E 178M
Jun 17, 2019 - 08:20 AM EDT / 2019.06.17 1220 UTC
Wind: Variable at 5 MPH (4 KT):0
Visibility: greater than 7 mile(s):0
Temperature: 75 F (24 C)
Dew Point: 51 F (11 C)
Relative Humidity: 43%
Pressure (altimeter): 30.09 in. Hg (1019 hPa)
ob: EBLG 171220Z VRB04KT CAVOK 24/11 Q1019 NOSIG
cycle: 12

Station Type Date Time Source
EBLG TAF 2019/06/17 12:27 UTC NOAA

TAF EBLG 171110Z 1712/1818 VRB03KT CAVOK

Example: see airport list